Terminal Aerodrome Forecast
Issued by NWS Upton, NY

Home | Current Version | Previous Version | Text Only | Print | Product List | Glossary On
Versions: 1 2 3 4 5 6 7 8 9 10 11 12 13 14 15 16 17 18 19 20 21 22 23 24 25 26 27 28 29 30 31 32 33 34 35 36
000
FTUS41 KOKX 260200 AAB
TAFJFK
TAF AMD
KJFK 260234Z 2603/2706 36010KT P6SM BKN060 BKN090
     FM260500 03009KT P6SM BKN040
     FM261200 06014KT P6SM BKN030
      TEMPO 2612/2615 3SM -SN BR BKN015
     FM261500 06016G24KT 1SM -SN BR BKN007
     FM261800 04020G30KT 3/4SM -SN BR BKN007
     FM262200 02020G30KT 1/2SM SN FZFG VV005
     FM270200 01025G40KT 1/2SM SN FZFG VV005=

USA.gov is the U.S. government's official web portal to all federal, state and local government web resources and services.